New Hope, Mississippi
Current Conditions -  °F | °C
As of 4:50 PM on Wednesday 26 Nov 2014 (Local Time) from KGTR Reporting Station
Broken Clouds Broken Clouds  
Wind Chill: 13°   Ceiling: 9000
Heat Index: 13°   Visibility: 10mi
Dew Point:   Wind: 5mph
Humidity: 44%   Direction: 220°SW
Pressure: 30.03"   Gusts: NA
Location:  33.455°N, 88.5512°W
Report Text: KGTR 262250Z 22004KT 10SM BKN090 13/01 A3003
Loading
Personal Weather Stations






























Interactive Weather Map New forecast layout! Learn more

10-Day Weather Forecast

Advertisements
Track Severe Weather on mobile